sensor_id;sensor_type;location;lat;lon;timestamp;pressure;altitude;pressure_sealevel;temperature;humidity
27304;BME280;14791;52.392;13.092;2023-04-09T00:02:16;102270.30;;;12.53;41.79
27304;BME280;14791;52.392;13.092;2023-04-09T00:04:45;102270.72;;;12.44;41.65
27304;BME280;14791;52.392;13.092;2023-04-09T00:07:14;102271.67;;;12.43;41.92
27304;BME280;14791;52.392;13.092;2023-04-09T00:09:42;102271.45;;;12.38;41.95
27304;BME280;14791;52.392;13.092;2023-04-09T00:12:11;102265.44;;;12.32;42.02
27304;BME280;14791;52.392;13.092;2023-04-09T00:14:40;102267.87;;;12.28;42.09
27304;BME280;14791;52.392;13.092;2023-04-09T00:17:09;102267.60;;;12.24;42.15
27304;BME280;14791;52.392;13.092;2023-04-09T00:19:38;102268.75;;;12.19;42.13
27304;BME280;14791;52.392;13.092;2023-04-09T00:22:07;102265.66;;;12.18;42.14
27304;BME280;14791;52.392;13.092;2023-04-09T00:24:36;102264.46;;;12.15;42.14
27304;BME280;14791;52.392;13.092;2023-04-09T00:27:05;102268.62;;;12.11;42.18
27304;BME280;14791;52.392;13.092;2023-04-09T00:29:34;102267.87;;;12.08;42.22
27304;BME280;14791;52.392;13.092;2023-04-09T00:32:03;102262.66;;;12.05;42.28
27304;BME280;14791;52.392;13.092;2023-04-09T00:34:32;102258.36;;;12.01;42.32
27304;BME280;14791;52.392;13.092;2023-04-09T00:37:02;102263.00;;;11.97;42.30
27304;BME280;14791;52.392;13.092;2023-04-09T00:39:31;102265.78;;;11.94;42.29
27304;BME280;14791;52.392;13.092;2023-04-09T00:42:00;102260.18;;;11.90;42.30
27304;BME280;14791;52.392;13.092;2023-04-09T00:44:30;102258.95;;;11.87;42.32
27304;BME280;14791;52.392;13.092;2023-04-09T00:46:59;102255.57;;;11.82;42.34
27304;BME280;14791;52.392;13.092;2023-04-09T00:49:28;102255.77;;;11.77;42.47
27304;BME280;14791;52.392;13.092;2023-04-09T00:51:58;102263.46;;;11.75;42.48
27304;BME280;14791;52.392;13.092;2023-04-09T00:54:27;102261.40;;;11.71;42.55
27304;BME280;14791;52.392;13.092;2023-04-09T00:56:56;102260.16;;;11.68;42.53
27304;BME280;14791;52.392;13.092;2023-04-09T00:59:28;102262.50;;;11.65;42.46
27304;BME280;14791;52.392;13.092;2023-04-09T01:01:57;102264.03;;;11.61;42.51
27304;BME280;14791;52.392;13.092;2023-04-09T01:04:26;102263.31;;;11.57;42.47
27304;BME280;14791;52.392;13.092;2023-04-09T01:07:04;102264.41;;;11.52;42.50
27304;BME280;14791;52.392;13.092;2023-04-09T01:09:39;102268.64;;;11.47;42.56
27304;BME280;14791;52.392;13.092;2023-04-09T01:15:08;102275.02;;;11.33;42.69
27304;BME280;14791;52.392;13.092;2023-04-09T01:23:45;102276.06;;;11.06;42.96
27304;BME280;14791;52.392;13.092;2023-04-09T01:29:05;102268.22;;;10.90;43.12
27304;BME280;14791;52.392;13.092;2023-04-09T01:31:37;102260.95;;;10.82;43.16
27304;BME280;14791;52.392;13.092;2023-04-09T01:34:08;102269.05;;;10.80;43.28
27304;BME280;14791;52.392;13.092;2023-04-09T01:36:39;102266.84;;;10.80;43.27
27304;BME280;14791;52.392;13.092;2023-04-09T01:39:09;102264.27;;;10.77;43.36
27304;BME280;14791;52.392;13.092;2023-04-09T01:41:39;102263.00;;;10.75;43.33
27304;BME280;14791;52.392;13.092;2023-04-09T01:44:09;102261.67;;;10.75;43.31
27304;BME280;14791;52.392;13.092;2023-04-09T01:46:40;102260.85;;;10.73;43.40
27304;BME280;14791;52.392;13.092;2023-04-09T01:49:09;102259.09;;;10.72;43.54
27304;BME280;14791;52.392;13.092;2023-04-09T01:51:39;102267.63;;;10.70;43.59
27304;BME280;14791;52.392;13.092;2023-04-09T01:54:08;102263.74;;;10.67;43.62
27304;BME280;14791;52.392;13.092;2023-04-09T01:56:51;102263.83;;;10.66;43.65
27304;BME280;14791;52.392;13.092;2023-04-09T01:59:19;102263.39;;;10.64;43.66
27304;BME280;14791;52.392;13.092;2023-04-09T02:01:59;102263.05;;;10.62;43.67
27304;BME280;14791;52.392;13.092;2023-04-09T02:04:29;102265.72;;;10.62;43.59
27304;BME280;14791;52.392;13.092;2023-04-09T02:07:03;102265.84;;;10.59;43.56
27304;BME280;14791;52.392;13.092;2023-04-09T02:09:31;102270.77;;;10.58;43.51
27304;BME280;14791;52.392;13.092;2023-04-09T02:12:03;102269.94;;;10.56;43.48
27304;BME280;14791;52.392;13.092;2023-04-09T02:14:33;102274.42;;;10.55;43.48
27304;BME280;14791;52.392;13.092;2023-04-09T02:17:05;102274.50;;;10.54;43.47
27304;BME280;14791;52.392;13.092;2023-04-09T02:19:45;102279.50;;;10.51;43.51
27304;BME280;14791;52.392;13.092;2023-04-09T02:22:15;102277.81;;;10.49;43.50
27304;BME280;14791;52.392;13.092;2023-04-09T02:24:46;102274.41;;;10.43;43.58
27304;BME280;14791;52.392;13.092;2023-04-09T02:27:15;102276.69;;;10.42;43.61
27304;BME280;14791;52.392;13.092;2023-04-09T02:29:43;102271.00;;;10.40;43.60
27304;BME280;14791;52.392;13.092;2023-04-09T02:32:13;102281.33;;;10.37;43.64
27304;BME280;14791;52.392;13.092;2023-04-09T02:34:42;102276.45;;;10.37;43.62
27304;BME280;14791;52.392;13.092;2023-04-09T02:37:11;102278.78;;;10.34;43.61
27304;BME280;14791;52.392;13.092;2023-04-09T02:39:40;102283.22;;;10.34;43.61
27304;BME280;14791;52.392;13.092;2023-04-09T02:42:09;102282.05;;;10.29;43.62
27304;BME280;14791;52.392;13.092;2023-04-09T02:44:38;102287.48;;;10.26;43.61
27304;BME280;14791;52.392;13.092;2023-04-09T02:47:06;102283.12;;;10.23;43.62
27304;BME280;14791;52.392;13.092;2023-04-09T02:49:37;102282.38;;;10.20;43.64
27304;BME280;14791;52.392;13.092;2023-04-09T02:52:06;102272.72;;;10.16;43.67
27304;BME280;14791;52.392;13.092;2023-04-09T02:54:35;102265.69;;;10.13;43.73
27304;BME280;14791;52.392;13.092;2023-04-09T02:57:03;102265.85;;;10.09;43.75
27304;BME280;14791;52.392;13.092;2023-04-09T02:59:32;102270.41;;;10.05;43.84
27304;BME280;14791;52.392;13.092;2023-04-09T03:02:02;102268.84;;;9.99;43.87
27304;BME280;14791;52.392;13.092;2023-04-09T03:04:31;102266.80;;;9.94;43.98
27304;BME280;14791;52.392;13.092;2023-04-09T03:07:00;102262.36;;;9.93;44.00
27304;BME280;14791;52.392;13.092;2023-04-09T03:09:29;102260.23;;;9.91;44.04
27304;BME280;14791;52.392;13.092;2023-04-09T03:11:58;102261.15;;;9.90;44.03
27304;BME280;14791;52.392;13.092;2023-04-09T03:14:28;102260.32;;;9.88;44.01
27304;BME280;14791;52.392;13.092;2023-04-09T03:16:57;102261.77;;;9.85;44.08
27304;BME280;14791;52.392;13.092;2023-04-09T03:19:26;102274.72;;;9.84;44.02
27304;BME280;14791;52.392;13.092;2023-04-09T03:21:55;102270.72;;;9.84;44.02
27304;BME280;14791;52.392;13.092;2023-04-09T03:24:25;102261.42;;;9.83;44.00
27304;BME280;14791;52.392;13.092;2023-04-09T03:26:56;102266.80;;;9.81;44.07
27304;BME280;14791;52.392;13.092;2023-04-09T03:29:26;102266.91;;;9.78;44.10
27304;BME280;14791;52.392;13.092;2023-04-09T03:31:55;102260.34;;;9.75;44.15
27304;BME280;14791;52.392;13.092;2023-04-09T03:34:24;102258.59;;;9.74;44.18
27304;BME280;14791;52.392;13.092;2023-04-09T03:36:55;102256.42;;;9.72;44.22
27304;BME280;14791;52.392;13.092;2023-04-09T03:39:25;102256.03;;;9.71;44.20
27304;BME280;14791;52.392;13.092;2023-04-09T03:41:57;102262.31;;;9.70;44.10
27304;BME280;14791;52.392;13.092;2023-04-09T03:44:27;102257.41;;;9.69;44.17
27304;BME280;14791;52.392;13.092;2023-04-09T03:46:58;102257.05;;;9.67;44.33
27304;BME280;14791;52.392;13.092;2023-04-09T03:49:27;102248.22;;;9.65;44.38
27304;BME280;14791;52.392;13.092;2023-04-09T03:51:58;102256.22;;;9.65;44.36
27304;BME280;14791;52.392;13.092;2023-04-09T03:54:29;102254.50;;;9.64;44.31
27304;BME280;14791;52.392;13.092;2023-04-09T03:56:58;102251.87;;;9.62;44.30
27304;BME280;14791;52.392;13.092;2023-04-09T03:59:28;102254.14;;;9.61;44.34
27304;BME280;14791;52.392;13.092;2023-04-09T04:01:57;102252.84;;;9.59;44.42
27304;BME280;14791;52.392;13.092;2023-04-09T04:04:27;102254.25;;;9.58;44.46
27304;BME280;14791;52.392;13.092;2023-04-09T04:06:57;102252.95;;;9.56;44.56
27304;BME280;14791;52.392;13.092;2023-04-09T04:09:28;102253.06;;;9.53;44.63
27304;BME280;14791;52.392;13.092;2023-04-09T04:12:00;102254.48;;;9.50;44.63
27304;BME280;14791;52.392;13.092;2023-04-09T04:14:43;102253.69;;;9.48;44.68
27304;BME280;14791;52.392;13.092;2023-04-09T04:17:19;102259.09;;;9.45;44.64
27304;BME280;14791;52.392;13.092;2023-04-09T04:19:50;102257.88;;;9.42;44.74
27304;BME280;14791;52.392;13.092;2023-04-09T04:22:19;102262.84;;;9.40;44.83
27304;BME280;14791;52.392;13.092;2023-04-09T04:24:49;102261.55;;;9.38;44.87
27304;BME280;14791;52.392;13.092;2023-04-09T04:27:20;102267.39;;;9.36;44.92
27304;BME280;14791;52.392;13.092;2023-04-09T04:29:49;102275.50;;;9.33;44.99
27304;BME280;14791;52.392;13.092;2023-04-09T04:32:20;102282.63;;;9.32;44.95
27304;BME280;14791;52.392;13.092;2023-04-09T04:34:50;102281.77;;;9.32;44.98
27304;BME280;14791;52.392;13.092;2023-04-09T04:37:21;102280.44;;;9.32;45.02
27304;BME280;14791;52.392;13.092;2023-04-09T04:39:51;102284.00;;;9.31;45.09
27304;BME280;14791;52.392;13.092;2023-04-09T04:42:22;102284.00;;;9.31;45.17
27304;BME280;14791;52.392;13.092;2023-04-09T04:44:51;102288.47;;;9.30;45.23
27304;BME280;14791;52.392;13.092;2023-04-09T04:47:24;102283.71;;;9.27;45.23
27304;BME280;14791;52.392;13.092;2023-04-09T04:49:53;102287.86;;;9.22;45.41
27304;BME280;14791;52.392;13.092;2023-04-09T04:52:22;102283.06;;;9.19;45.58
27304;BME280;14791;52.392;13.092;2023-04-09T04:54:52;102284.50;;;9.15;45.68
27304;BME280;14791;52.392;13.092;2023-04-09T04:57:23;102275.67;;;9.13;45.88
27304;BME280;14791;52.392;13.092;2023-04-09T04:59:53;102282.38;;;9.12;46.02
27304;BME280;14791;52.392;13.092;2023-04-09T05:02:22;102288.60;;;9.12;46.23
27304;BME280;14791;52.392;13.092;2023-04-09T05:04:52;102284.07;;;9.14;46.36
27304;BME280;14791;52.392;13.092;2023-04-09T05:07:23;102291.56;;;9.16;46.52
27304;BME280;14791;52.392;13.092;2023-04-09T05:09:54;102298.95;;;9.22;46.60
27304;BME280;14791;52.392;13.092;2023-04-09T05:12:23;102296.72;;;9.23;46.67
27304;BME280;14791;52.392;13.092;2023-04-09T05:14:53;102292.61;;;9.26;46.70
27304;BME280;14791;52.392;13.092;2023-04-09T05:17:22;102293.34;;;9.31;46.76
27304;BME280;14791;52.392;13.092;2023-04-09T05:19:54;102299.00;;;9.35;46.84
27304;BME280;14791;52.392;13.092;2023-04-09T05:22:26;102292.22;;;9.38;46.91
27304;BME280;14791;52.392;13.092;2023-04-09T05:24:55;102292.15;;;9.41;46.98
27304;BME280;14791;52.392;13.092;2023-04-09T05:27:24;102286.70;;;9.44;47.02
27304;BME280;14791;52.392;13.092;2023-04-09T05:29:56;102299.03;;;9.48;47.04
27304;BME280;14791;52.392;13.092;2023-04-09T05:32:25;102301.55;;;9.53;47.12
27304;BME280;14791;52.392;13.092;2023-04-09T05:34:54;102304.04;;;9.57;47.13
27304;BME280;14791;52.392;13.092;2023-04-09T05:37:25;102299.85;;;9.64;47.14
27304;BME280;14791;52.392;13.092;2023-04-09T05:39:54;102303.23;;;9.69;47.18
27304;BME280;14791;52.392;13.092;2023-04-09T05:42:24;102299.91;;;9.75;47.19
27304;BME280;14791;52.392;13.092;2023-04-09T05:44:55;102301.92;;;9.82;47.12
27304;BME280;14791;52.392;13.092;2023-04-09T05:47:24;102309.23;;;9.89;47.16
27304;BME280;14791;52.392;13.092;2023-04-09T05:49:57;102311.23;;;9.95;47.13
27304;BME280;14791;52.392;13.092;2023-04-09T05:52:27;102310.17;;;10.01;47.15
27304;BME280;14791;52.392;13.092;2023-04-09T05:54:56;102310.02;;;10.06;47.21
27304;BME280;14791;52.392;13.092;2023-04-09T05:57:27;102301.73;;;10.13;47.25
27304;BME280;14791;52.392;13.092;2023-04-09T05:59:59;102311.75;;;10.20;47.24
27304;BME280;14791;52.392;13.092;2023-04-09T06:02:28;102316.38;;;10.28;47.24
27304;BME280;14791;52.392;13.092;2023-04-09T06:04:57;102312.17;;;10.34;47.23
27304;BME280;14791;52.392;13.092;2023-04-09T06:07:26;102316.76;;;10.42;47.22
27304;BME280;14791;52.392;13.092;2023-04-09T06:09:55;102317.81;;;10.50;47.20
27304;BME280;14791;52.392;13.092;2023-04-09T06:12:23;102319.33;;;10.57;47.11
27304;BME280;14791;52.392;13.092;2023-04-09T06:14:53;102316.49;;;10.62;46.97
27304;BME280;14791;52.392;13.092;2023-04-09T06:17:21;102312.37;;;10.65;46.91
27304;BME280;14791;52.392;13.092;2023-04-09T06:19:50;102320.30;;;10.68;47.04
27304;BME280;14791;52.392;13.092;2023-04-09T06:22:19;102317.97;;;10.71;47.11
27304;BME280;14791;52.392;13.092;2023-04-09T06:24:48;102311.64;;;10.73;47.19
27304;BME280;14791;52.392;13.092;2023-04-09T06:27:17;102319.48;;;10.78;47.13
27304;BME280;14791;52.392;13.092;2023-04-09T06:29:47;102321.17;;;10.80;47.05
27304;BME280;14791;52.392;13.092;2023-04-09T06:32:16;102317.55;;;10.81;47.13
27304;BME280;14791;52.392;13.092;2023-04-09T06:34:45;102318.37;;;10.83;47.26
27304;BME280;14791;52.392;13.092;2023-04-09T06:37:15;102320.92;;;10.86;47.29
27304;BME280;14791;52.392;13.092;2023-04-09T06:39:43;102318.16;;;10.90;47.27
27304;BME280;14791;52.392;13.092;2023-04-09T06:42:13;102322.95;;;10.92;47.20
27304;BME280;14791;52.392;13.092;2023-04-09T06:44:44;102324.28;;;10.92;47.18
27304;BME280;14791;52.392;13.092;2023-04-09T06:47:13;102322.56;;;10.91;47.14
27304;BME280;14791;52.392;13.092;2023-04-09T06:49:42;102315.53;;;10.88;47.17
27304;BME280;14791;52.392;13.092;2023-04-09T06:52:11;102315.53;;;10.88;47.17
27304;BME280;14791;52.392;13.092;2023-04-09T06:54:40;102314.70;;;10.86;47.20
27304;BME280;14791;52.392;13.092;2023-04-09T06:57:09;102321.82;;;10.87;47.34
27304;BME280;14791;52.392;13.092;2023-04-09T06:59:38;102322.60;;;10.89;47.35
27304;BME280;14791;52.392;13.092;2023-04-09T07:02:07;102323.42;;;10.91;47.33
27304;BME280;14791;52.392;13.092;2023-04-09T07:04:36;102321.52;;;10.95;47.22
27304;BME280;14791;52.392;13.092;2023-04-09T07:07:05;102321.91;;;10.96;47.28
27304;BME280;14791;52.392;13.092;2023-04-09T07:09:34;102326.22;;;11.00;47.48
27304;BME280;14791;52.392;13.092;2023-04-09T07:12:03;102320.63;;;11.06;47.55
27304;BME280;14791;52.392;13.092;2023-04-09T07:14:32;102331.95;;;11.24;47.51
27304;BME280;14791;52.392;13.092;2023-04-09T07:17:01;102331.95;;;11.24;47.51
27304;BME280;14791;52.392;13.092;2023-04-09T07:19:29;102333.91;;;11.43;47.34
27304;BME280;14791;52.392;13.092;2023-04-09T07:21:58;102333.91;;;11.43;47.34
27304;BME280;14791;52.392;13.092;2023-04-09T07:24:27;102336.88;;;11.47;47.14
27304;BME280;14791;52.392;13.092;2023-04-09T07:26:56;102343.25;;;11.55;46.82
27304;BME280;14791;52.392;13.092;2023-04-09T07:29:25;102345.06;;;11.54;46.76
27304;BME280;14791;52.392;13.092;2023-04-09T07:31:54;102339.63;;;11.56;46.83
27304;BME280;14791;52.392;13.092;2023-04-09T07:34:23;102343.17;;;11.56;46.99
27304;BME280;14791;52.392;13.092;2023-04-09T07:36:52;102344.80;;;11.60;47.06
27304;BME280;14791;52.392;13.092;2023-04-09T07:39:21;102351.26;;;11.66;46.97
27304;BME280;14791;52.392;13.092;2023-04-09T07:41:50;102349.78;;;11.69;46.77
27304;BME280;14791;52.392;13.092;2023-04-09T07:44:19;102348.84;;;11.70;46.77
27304;BME280;14791;52.392;13.092;2023-04-09T07:46:48;102352.33;;;11.73;46.69
27304;BME280;14791;52.392;13.092;2023-04-09T07:49:17;102359.31;;;11.77;46.59
27304;BME280;14791;52.392;13.092;2023-04-09T07:51:46;102356.11;;;11.79;46.50
27304;BME280;14791;52.392;13.092;2023-04-09T07:54:15;102353.34;;;11.80;46.42
27304;BME280;14791;52.392;13.092;2023-04-09T07:56:43;102352.91;;;11.81;46.38
27304;BME280;14791;52.392;13.092;2023-04-09T07:59:12;102344.19;;;11.76;46.43
27304;BME280;14791;52.392;13.092;2023-04-09T08:01:43;102362.66;;;11.82;46.46
27304;BME280;14791;52.392;13.092;2023-04-09T08:04:12;102357.31;;;11.82;46.47
27304;BME280;14791;52.392;13.092;2023-04-09T08:06:42;102363.88;;;11.85;46.49
27304;BME280;14791;52.392;13.092;2023-04-09T08:09:12;102358.84;;;11.89;46.54
27304;BME280;14791;52.392;13.092;2023-04-09T08:11:42;102360.46;;;11.93;46.53
27304;BME280;14791;52.392;13.092;2023-04-09T08:14:13;102363.42;;;11.97;46.48
27304;BME280;14791;52.392;13.092;2023-04-09T08:16:44;102361.13;;;11.98;46.34
27304;BME280;14791;52.392;13.092;2023-04-09T08:19:15;102361.95;;;12.00;46.37
27304;BME280;14791;52.392;13.092;2023-04-09T08:21:44;102365.83;;;12.03;46.46
27304;BME280;14791;52.392;13.092;2023-04-09T08:24:15;102362.56;;;12.07;46.53
27304;BME280;14791;52.392;13.092;2023-04-09T08:26:45;102361.90;;;12.12;46.52
27304;BME280;14791;52.392;13.092;2023-04-09T08:29:14;102366.59;;;12.17;46.40
27304;BME280;14791;52.392;13.092;2023-04-09T08:31:43;102369.08;;;12.22;46.34
27304;BME280;14791;52.392;13.092;2023-04-09T08:34:12;102370.28;;;12.25;46.32
27304;BME280;14791;52.392;13.092;2023-04-09T08:36:45;102361.28;;;12.26;46.23
27304;BME280;14791;52.392;13.092;2023-04-09T08:39:16;102371.03;;;12.28;46.20
27304;BME280;14791;52.392;13.092;2023-04-09T08:41:48;102367.98;;;12.26;46.14
27304;BME280;14791;52.392;13.092;2023-04-09T08:44:18;102365.87;;;12.24;46.09
27304;BME280;14791;52.392;13.092;2023-04-09T08:46:48;102362.42;;;12.10;46.03
27304;BME280;14791;52.392;13.092;2023-04-09T08:49:18;102362.42;;;12.10;46.03
27304;BME280;14791;52.392;13.092;2023-04-09T08:51:48;102368.36;;;12.06;46.14
27304;BME280;14791;52.392;13.092;2023-04-09T08:54:18;102362.76;;;12.02;46.29
27304;BME280;14791;52.392;13.092;2023-04-09T08:56:47;102364.77;;;11.97;46.44
27304;BME280;14791;52.392;13.092;2023-04-09T08:59:16;102363.00;;;11.96;46.73
27304;BME280;14791;52.392;13.092;2023-04-09T09:01:45;102367.83;;;11.98;46.97
27304;BME280;14791;52.392;13.092;2023-04-09T09:04:16;102359.99;;;12.04;47.25
27304;BME280;14791;52.392;13.092;2023-04-09T09:06:45;102359.22;;;12.12;47.38
27304;BME280;14791;52.392;13.092;2023-04-09T09:09:15;102350.71;;;12.23;47.47
27304;BME280;14791;52.392;13.092;2023-04-09T09:11:47;102354.73;;;12.33;47.45
27304;BME280;14791;52.392;13.092;2023-04-09T09:14:20;102350.26;;;12.44;47.37
27304;BME280;14791;52.392;13.092;2023-04-09T09:19:33;102351.17;;;12.63;47.33
27304;BME280;14791;52.392;13.092;2023-04-09T09:22:03;102357.95;;;12.72;47.34
27304;BME280;14791;52.392;13.092;2023-04-09T09:24:33;102356.20;;;12.81;47.21
27304;BME280;14791;52.392;13.092;2023-04-09T09:27:04;102361.53;;;12.91;47.16
27304;BME280;14791;52.392;13.092;2023-04-09T09:29:34;102364.33;;;12.98;47.08
27304;BME280;14791;52.392;13.092;2023-04-09T09:32:06;102356.41;;;13.06;47.00
27304;BME280;14791;52.392;13.092;2023-04-09T09:34:37;102363.23;;;13.13;46.96
27304;BME280;14791;52.392;13.092;2023-04-09T09:37:24;102350.52;;;13.16;46.80
27304;BME280;14791;52.392;13.092;2023-04-09T09:39:44;102351.27;;;13.20;46.70
27304;BME280;14791;52.392;13.092;2023-04-09T09:42:13;102351.27;;;13.20;46.71
27304;BME280;14791;52.392;13.092;2023-04-09T09:44:42;102347.56;;;13.23;46.77
27304;BME280;14791;52.392;13.092;2023-04-09T09:47:12;102344.73;;;13.26;46.80
27304;BME280;14791;52.392;13.092;2023-04-09T09:49:42;102348.98;;;13.31;46.69
27304;BME280;14791;52.392;13.092;2023-04-09T09:52:11;102341.32;;;13.32;46.66
27304;BME280;14791;52.392;13.092;2023-04-09T09:54:41;102339.28;;;13.37;46.60
27304;BME280;14791;52.392;13.092;2023-04-09T09:57:10;102341.80;;;13.40;46.61
27304;BME280;14791;52.392;13.092;2023-04-09T09:59:46;102337.12;;;13.46;46.61
27304;BME280;14791;52.392;13.092;2023-04-09T10:02:22;102334.53;;;13.53;46.69
27304;BME280;14791;52.392;13.092;2023-04-09T10:04:51;102327.92;;;13.60;46.74
27304;BME280;14791;52.392;13.092;2023-04-09T10:07:20;102325.71;;;13.68;46.88
27304;BME280;14791;52.392;13.092;2023-04-09T10:09:52;102324.30;;;13.78;46.68
27304;BME280;14791;52.392;13.092;2023-04-09T10:12:22;102323.84;;;13.88;46.38
27304;BME280;14791;52.392;13.092;2023-04-09T10:14:54;102323.55;;;13.94;46.24
27304;BME280;14791;52.392;13.092;2023-04-09T10:17:23;102317.45;;;13.99;46.21
27304;BME280;14791;52.392;13.092;2023-04-09T10:20:04;102313.09;;;14.05;46.26
27304;BME280;14791;52.392;13.092;2023-04-09T10:22:31;102314.94;;;14.13;46.25
27304;BME280;14791;52.392;13.092;2023-04-09T10:25:04;102310.19;;;14.18;46.28
27304;BME280;14791;52.392;13.092;2023-04-09T10:27:33;102303.92;;;14.26;46.14
27304;BME280;14791;52.392;13.092;2023-04-09T10:30:02;102299.17;;;14.32;46.03
27304;BME280;14791;52.392;13.092;2023-04-09T10:32:34;102305.03;;;14.40;45.97
27304;BME280;14791;52.392;13.092;2023-04-09T10:35:04;102301.93;;;14.47;45.95
27304;BME280;14791;52.392;13.092;2023-04-09T10:37:35;102302.44;;;14.56;45.87
27304;BME280;14791;52.392;13.092;2023-04-09T10:40:04;102299.88;;;14.61;45.89
27304;BME280;14791;52.392;13.092;2023-04-09T10:42:35;102294.08;;;14.69;45.87
27304;BME280;14791;52.392;13.092;2023-04-09T10:45:13;102306.66;;;14.77;45.85
27304;BME280;14791;52.392;13.092;2023-04-09T10:47:48;102296.81;;;14.85;45.74
27304;BME280;14791;52.392;13.092;2023-04-09T10:50:26;102298.36;;;14.89;45.67
27304;BME280;14791;52.392;13.092;2023-04-09T10:52:57;102294.79;;;14.97;45.70
27304;BME280;14791;52.392;13.092;2023-04-09T10:55:40;102303.84;;;15.03;45.52
27304;BME280;14791;52.392;13.092;2023-04-09T10:58:11;102300.83;;;15.09;45.35
27304;BME280;14791;52.392;13.092;2023-04-09T11:00:45;102303.19;;;15.16;45.30
27304;BME280;14791;52.392;13.092;2023-04-09T11:03:28;102302.03;;;15.20;45.19
27304;BME280;14791;52.392;13.092;2023-04-09T11:06:02;102300.36;;;15.26;45.15
27304;BME280;14791;52.392;13.092;2023-04-09T11:08:33;102295.77;;;15.28;45.08
27304;BME280;14791;52.392;13.092;2023-04-09T11:11:03;102296.36;;;15.33;44.98
27304;BME280;14791;52.392;13.092;2023-04-09T11:13:32;102308.70;;;15.37;44.84
27304;BME280;14791;52.392;13.092;2023-04-09T11:16:01;102304.37;;;15.42;44.60
27304;BME280;14791;52.392;13.092;2023-04-09T11:18:33;102299.32;;;15.44;44.46
27304;BME280;14791;52.392;13.092;2023-04-09T11:21:03;102297.00;;;15.45;44.19
27304;BME280;14791;52.392;13.092;2023-04-09T11:23:32;102302.69;;;15.48;44.12
27304;BME280;14791;52.392;13.092;2023-04-09T11:26:01;102300.30;;;15.50;44.30
27304;BME280;14791;52.392;13.092;2023-04-09T11:28:33;102295.13;;;15.55;44.35
27304;BME280;14791;52.392;13.092;2023-04-09T11:31:04;102296.70;;;15.59;44.37
27304;BME280;14791;52.392;13.092;2023-04-09T11:33:33;102291.91;;;15.64;44.44
27304;BME280;14791;52.392;13.092;2023-04-09T11:36:04;102294.25;;;15.70;44.51
27304;BME280;14791;52.392;13.092;2023-04-09T11:38:35;102289.30;;;15.78;44.32
27304;BME280;14791;52.392;13.092;2023-04-09T11:41:05;102284.50;;;15.83;44.20
27304;BME280;14791;52.392;13.092;2023-04-09T11:43:36;102288.56;;;15.90;44.12
27304;BME280;14791;52.392;13.092;2023-04-09T11:46:06;102281.08;;;15.95;43.96
27304;BME280;14791;52.392;13.092;2023-04-09T11:48:35;102277.98;;;16.02;43.81
27304;BME280;14791;52.392;13.092;2023-04-09T11:51:05;102270.33;;;16.10;43.81
27304;BME280;14791;52.392;13.092;2023-04-09T11:53:35;102267.16;;;16.18;43.83
27304;BME280;14791;52.392;13.092;2023-04-09T11:56:05;102264.77;;;16.27;43.59
27304;BME280;14791;52.392;13.092;2023-04-09T11:58:34;102253.50;;;16.35;43.55
27304;BME280;14791;52.392;13.092;2023-04-09T12:01:04;102256.48;;;16.45;43.70
27304;BME280;14791;52.392;13.092;2023-04-09T12:03:33;102255.83;;;16.55;43.68
27304;BME280;14791;52.392;13.092;2023-04-09T12:06:05;102255.05;;;16.68;43.53
27304;BME280;14791;52.392;13.092;2023-04-09T12:08:36;102257.00;;;16.80;43.55
27304;BME280;14791;52.392;13.092;2023-04-09T12:11:10;102264.98;;;16.96;43.67
27304;BME280;14791;52.392;13.092;2023-04-09T12:13:39;102259.34;;;17.13;43.87
27304;BME280;14791;52.392;13.092;2023-04-09T12:16:14;102250.02;;;17.39;44.44
27304;BME280;14791;52.392;13.092;2023-04-09T12:18:44;102257.70;;;17.72;44.46
27304;BME280;14791;52.392;13.092;2023-04-09T12:21:14;102255.05;;;18.18;44.33
27304;BME280;14791;52.392;13.092;2023-04-09T12:23:44;102254.58;;;18.75;43.97
27304;BME280;14791;52.392;13.092;2023-04-09T12:26:13;102257.49;;;19.40;43.54
27304;BME280;14791;52.392;13.092;2023-04-09T12:28:42;102248.66;;;20.14;43.14
27304;BME280;14791;52.392;13.092;2023-04-09T12:31:11;102253.30;;;20.93;42.04
27304;BME280;14791;52.392;13.092;2023-04-09T12:33:40;102249.91;;;21.61;41.10
27304;BME280;14791;52.392;13.092;2023-04-09T12:36:09;102245.84;;;22.29;40.51
27304;BME280;14791;52.392;13.092;2023-04-09T12:38:38;102245.38;;;23.01;39.86
27304;BME280;14791;52.392;13.092;2023-04-09T12:41:07;102246.16;;;23.71;38.92
27304;BME280;14791;52.392;13.092;2023-04-09T12:43:36;102250.45;;;24.36;38.22
27304;BME280;14791;52.392;13.092;2023-04-09T12:46:05;102249.95;;;25.02;37.56
27304;BME280;14791;52.392;13.092;2023-04-09T12:48:34;102242.37;;;25.59;36.51
27304;BME280;14791;52.392;13.092;2023-04-09T12:51:05;102245.51;;;26.04;35.47
27304;BME280;14791;52.392;13.092;2023-04-09T12:53:33;102243.33;;;26.38;34.82
27304;BME280;14791;52.392;13.092;2023-04-09T12:56:03;102242.50;;;26.72;34.27
27304;BME280;14791;52.392;13.092;2023-04-09T12:58:33;102242.65;;;27.09;33.76
27304;BME280;14791;52.392;13.092;2023-04-09T13:01:01;102248.23;;;27.38;33.09
27304;BME280;14791;52.392;13.092;2023-04-09T13:03:31;102244.48;;;27.63;32.67
27304;BME280;14791;52.392;13.092;2023-04-09T13:06:00;102233.34;;;27.89;32.42
27304;BME280;14791;52.392;13.092;2023-04-09T13:08:29;102248.40;;;28.18;31.92
27304;BME280;14791;52.392;13.092;2023-04-09T13:10:58;102242.19;;;28.36;31.46
27304;BME280;14791;52.392;13.092;2023-04-09T13:13:27;102243.91;;;28.50;31.12